Time;durP1;ratioP1;P1;durP2;ratioP2;P2;SDS_P1;SDS_P2;PMS_P1;PMS_P2;Temp;Humidity;BMP_temperature;BMP_pressure;BME280_temperature;BME280_humidity;BME280_pressure;Samples;Min_cycle;Max_cycle;Signal;HPM_P1;HPM_P2
2022/11/14 00:00:43;;;;;;;13.77;6.93;;;6.70;99.90;;;;;;5137356;27;20035;-65
2022/11/14 00:03:09;;;;;;;16.73;7.38;;;6.80;99.90;;;;;;5119021;27;20502;-65
2022/11/14 00:05:43;;;;;;;14.90;7.82;;;6.80;99.90;;;;;;5137218;27;20043;-65
2022/11/14 00:08:18;;;;;;;15.30;6.97;;;6.80;99.90;;;;;;5137245;27;20364;-65
2022/11/14 00:10:46;;;;;;;14.32;6.43;;;6.80;99.90;;;;;;5137173;27;20039;-66
2022/11/14 00:13:11;;;;;;;15.80;7.95;;;6.80;99.90;;;;;;5136787;27;20167;-66
2022/11/14 00:15:37;;;;;;;19.52;7.72;;;6.80;99.90;;;;;;5137053;27;20084;-65
2022/11/14 00:18:03;;;;;;;16.95;7.93;;;6.80;99.90;;;;;;5136729;27;20091;-65
2022/11/14 00:20:29;;;;;;;12.70;7.22;;;6.90;99.90;;;;;;5136844;27;20046;-65
2022/11/14 00:22:54;;;;;;;16.58;7.85;;;6.80;99.90;;;;;;5136760;27;20405;-65
2022/11/14 00:25:20;;;;;;;17.70;8.55;;;6.90;99.90;;;;;;5136959;27;20511;-66
2022/11/14 00:27:45;;;;;;;19.98;9.30;;;6.90;99.90;;;;;;5118523;27;20435;-65
2022/11/14 00:30:11;;;;;;;17.90;7.97;;;6.90;99.90;;;;;;5136774;27;20398;-65
2022/11/14 00:32:37;;;;;;;19.60;9.10;;;6.90;99.90;;;;;;5136671;27;20137;-65
2022/11/14 00:35:03;;;;;;;16.70;8.20;;;6.70;99.90;;;;;;5136697;27;20039;-65
2022/11/14 00:37:28;;;;;;;14.25;7.30;;;6.90;99.90;;;;;;5101121;27;20092;-65
2022/11/14 00:39:54;;;;;;;18.15;8.80;;;6.90;99.90;;;;;;5117863;27;20091;-65
2022/11/14 00:42:20;;;;;;;21.52;9.82;;;7.00;99.90;;;;;;5118019;27;20406;-65
2022/11/14 00:44:45;;;;;;;15.02;8.38;;;7.30;99.90;;;;;;5117690;27;20405;-65
2022/11/14 00:47:11;;;;;;;28.08;10.68;;;6.80;99.90;;;;;;5136429;27;20063;-65
2022/11/14 00:49:37;;;;;;;18.95;10.23;;;6.80;99.90;;;;;;5136357;27;20035;-65
2022/11/14 00:52:02;;;;;;;20.40;9.20;;;6.60;99.90;;;;;;5136350;27;20043;-65
2022/11/14 00:54:28;;;;;;;18.30;9.60;;;6.80;99.90;;;;;;5118010;27;20398;-65
2022/11/14 00:56:54;;;;;;;23.13;10.15;;;6.90;99.90;;;;;;5135914;27;20502;-65
2022/11/14 00:59:19;;;;;;;20.05;10.65;;;7.20;99.90;;;;;;5134605;27;20055;-65
2022/11/14 01:01:45;;;;;;;22.83;10.40;;;6.80;99.90;;;;;;5136127;27;20533;-65
2022/11/14 01:04:10;;;;;;;20.80;10.50;;;6.80;99.90;;;;;;5117812;27;20390;-66
2022/11/14 01:06:36;;;;;;;18.25;10.05;;;6.80;99.90;;;;;;5136030;27;20104;-66
2022/11/14 01:09:02;;;;;;;21.23;10.95;;;7.00;99.90;;;;;;5135723;27;20405;-68
2022/11/14 01:11:27;;;;;;;25.98;10.68;;;6.70;99.90;;;;;;5117519;27;20078;-65
2022/11/14 01:13:53;;;;;;;23.83;11.43;;;6.70;99.90;;;;;;5135883;27;20035;-65
2022/11/14 01:16:19;;;;;;;22.55;9.93;;;6.60;99.90;;;;;;5135879;27;20046;-65
2022/11/14 01:18:45;;;;;;;22.48;10.13;;;6.70;99.90;;;;;;5135692;27;20042;-65
2022/11/14 01:21:12;;;;;;;21.35;10.43;;;6.70;99.90;;;;;;5135841;27;20027;-65
2022/11/14 01:23:38;;;;;;;21.52;10.43;;;6.90;99.90;;;;;;5135702;27;20062;-65
2022/11/14 01:26:10;;;;;;;24.35;11.32;;;6.60;99.90;;;;;;5117064;27;20328;-65
2022/11/14 01:28:36;;;;;;;19.92;10.73;;;6.70;99.90;;;;;;5135573;27;20039;-65
2022/11/14 01:31:17;;;;;;;24.77;11.75;;;6.70;99.90;;;;;;5135561;27;20412;-65
2022/11/14 01:33:43;;;;;;;26.55;12.27;;;6.70;99.90;;;;;;5135588;27;20479;-65
2022/11/14 01:36:10;;;;;;;22.13;11.18;;;6.60;99.90;;;;;;5135152;27;20085;-65
2022/11/14 01:38:37;;;;;;;24.15;11.98;;;6.60;99.90;;;;;;5116662;27;20042;-65
2022/11/14 01:41:03;;;;;;;27.80;12.18;;;6.70;99.90;;;;;;5135410;27;20043;-65
2022/11/14 01:43:34;;;;;;;27.30;12.48;;;6.70;99.90;;;;;;5134948;27;20042;-65
2022/11/14 01:46:04;;;;;;;26.75;12.07;;;6.70;99.90;;;;;;5116652;27;20035;-65
2022/11/14 01:48:38;;;;;;;33.40;12.38;;;6.60;99.90;;;;;;5135251;27;20118;-65
2022/11/14 01:51:22;;;;;;;25.60;12.20;;;6.60;99.90;;;;;;5135232;27;20088;-65
2022/11/14 01:53:51;;;;;;;27.23;13.27;;;6.60;99.90;;;;;;5116478;27;20035;-65
2022/11/14 01:56:23;;;;;;;27.63;12.73;;;6.80;99.90;;;;;;5135113;27;20043;-65
2022/11/14 01:58:55;;;;;;;28.88;13.05;;;6.60;99.90;;;;;;5134558;27;20043;-65
2022/11/14 02:01:21;;;;;;;29.05;12.95;;;6.60;99.90;;;;;;5135042;27;20135;-65
2022/11/14 02:03:50;;;;;;;27.80;10.98;;;6.80;99.90;;;;;;5116559;27;20050;-65
2022/11/14 02:06:19;;;;;;;29.35;12.18;;;6.60;99.90;;;;;;5134917;27;20478;-65
2022/11/14 02:08:46;;;;;;;30.90;11.95;;;6.50;99.90;;;;;;5134862;27;20038;-65
2022/11/14 02:11:12;;;;;;;25.42;12.60;;;6.50;99.90;;;;;;5134657;27;20065;-65
2022/11/14 02:13:38;;;;;;;26.25;12.15;;;6.50;99.90;;;;;;5116190;27;20039;-65
2022/11/14 02:16:05;;;;;;;30.33;13.43;;;6.30;99.90;;;;;;5134482;27;20443;-65
2022/11/14 02:18:30;;;;;;;33.47;13.02;;;6.50;99.90;;;;;;5134706;27;20063;-65
2022/11/14 02:20:56;;;;;;;31.45;13.95;;;6.50;99.90;;;;;;5134765;27;20067;-65
2022/11/14 02:23:27;;;;;;;25.58;13.93;;;6.50;99.90;;;;;;5134517;27;20047;-65
2022/11/14 02:25:53;;;;;;;30.45;13.55;;;6.50;99.90;;;;;;5134512;27;20031;-65
2022/11/14 02:28:20;;;;;;;27.33;12.88;;;6.50;99.90;;;;;;5134600;27;20035;-66
2022/11/14 02:30:46;;;;;;;22.95;11.60;;;7.10;99.90;;;;;;5134321;27;20043;-65
2022/11/14 02:33:13;;;;;;;33.38;14.00;;;6.60;99.90;;;;;;5134592;27;20095;-65
2022/11/14 02:35:39;;;;;;;24.95;12.68;;;6.60;99.90;;;;;;5134503;27;20039;-65
2022/11/14 02:38:05;;;;;;;30.80;13.75;;;6.60;99.90;;;;;;5115911;27;20089;-65
2022/11/14 02:40:31;;;;;;;28.55;13.15;;;6.50;99.90;;;;;;5134399;27;20075;-66
2022/11/14 02:42:57;;;;;;;30.35;14.43;;;6.60;99.90;;;;;;5134512;28;20056;-65
2022/11/14 02:45:23;;;;;;;31.17;13.43;;;6.60;99.90;;;;;;5099036;28;20118;-65
2022/11/14 02:47:48;;;;;;;31.20;14.27;;;6.50;99.90;;;;;;5134104;28;20035;-65
2022/11/14 02:50:14;;;;;;;28.70;13.23;;;6.60;99.90;;;;;;5134419;28;20192;-65
2022/11/14 02:52:40;;;;;;;26.85;12.73;;;6.60;99.90;;;;;;5134370;28;20063;-65
2022/11/14 02:55:06;;;;;;;29.67;13.25;;;6.60;99.90;;;;;;5134040;28;20043;-65
2022/11/14 02:57:31;;;;;;;26.55;11.93;;;6.60;99.90;;;;;;5134330;28;20084;-65
2022/11/14 02:59:57;;;;;;;28.20;13.57;;;6.60;99.90;;;;;;5133850;28;20448;-65
2022/11/14 03:02:23;;;;;;;24.10;12.85;;;6.60;99.90;;;;;;5115968;28;20111;-67
2022/11/14 03:04:48;;;;;;;24.83;13.02;;;6.60;99.90;;;;;;5133897;28;20034;-65
2022/11/14 03:07:14;;;;;;;27.92;12.23;;;6.60;99.90;;;;;;5115587;28;20035;-65
2022/11/14 03:09:40;;;;;;;25.88;12.85;;;6.60;99.90;;;;;;5134202;28;20118;-65
2022/11/14 03:12:06;;;;;;;27.48;12.75;;;7.00;99.90;;;;;;5134265;28;20045;-65
2022/11/14 03:14:31;;;;;;;24.67;13.25;;;6.70;99.90;;;;;;5134180;28;20087;-65
2022/11/14 03:16:57;;;;;;;32.83;13.98;;;6.70;99.90;;;;;;5134169;28;20485;-65
2022/11/14 03:19:23;;;;;;;25.75;12.20;;;6.60;99.90;;;;;;5133814;28;20137;-65
2022/11/14 03:21:49;;;;;;;30.52;13.00;;;6.70;99.90;;;;;;5134999;27;20031;-65
2022/11/14 03:24:14;;;;;;;29.67;13.27;;;6.60;99.90;;;;;;5119445;27;20032;-65
2022/11/14 03:26:40;;;;;;;26.73;12.48;;;7.00;99.90;;;;;;5137995;27;20040;-65
2022/11/14 03:29:06;;;;;;;24.42;10.90;;;6.70;99.90;;;;;;5137971;27;20118;-65
2022/11/14 03:31:32;;;;;;;23.75;11.60;;;6.70;99.90;;;;;;5137812;27;20486;-65
2022/11/14 03:33:58;;;;;;;28.85;14.30;;;6.60;99.90;;;;;;5137911;27;20039;-64
2022/11/14 03:36:23;;;;;;;29.33;13.40;;;6.70;99.90;;;;;;5119385;27;20046;-65
2022/11/14 03:38:49;;;;;;;29.30;13.73;;;6.70;99.90;;;;;;5137696;27;20118;-65
2022/11/14 03:41:15;;;;;;;26.00;12.55;;;6.70;99.90;;;;;;5137764;27;20035;-65
2022/11/14 03:43:40;;;;;;;24.85;13.00;;;6.70;99.90;;;;;;5137743;27;20119;-65
2022/11/14 03:46:06;;;;;;;29.20;12.88;;;6.70;99.90;;;;;;5137372;27;20059;-65
2022/11/14 03:48:32;;;;;;;22.00;11.82;;;6.60;99.90;;;;;;5119311;27;20043;-65
2022/11/14 03:50:57;;;;;;;22.00;11.70;;;6.70;99.90;;;;;;5137219;27;20035;-66
2022/11/14 03:53:24;;;;;;;34.15;13.93;;;6.70;99.90;;;;;;5137211;27;20142;-66
2022/11/14 03:55:51;;;;;;;30.55;12.85;;;6.70;99.90;;;;;;5118766;27;20039;-65
2022/11/14 03:58:17;;;;;;;28.98;13.25;;;6.70;99.90;;;;;;5136948;27;20058;-66
2022/11/14 04:00:42;;;;;;;21.27;11.38;;;6.70;99.90;;;;;;5137350;27;20047;-65
2022/11/14 04:03:08;;;;;;;29.52;12.85;;;6.70;99.90;;;;;;5101687;27;20429;-65
2022/11/14 04:05:34;;;;;;;23.63;12.25;;;6.70;99.90;;;;;;5118918;27;20121;-65
2022/11/14 04:07:59;;;;;;;23.98;11.85;;;6.70;99.90;;;;;;5137319;27;20031;-66
2022/11/14 04:10:25;;;;;;;23.15;11.77;;;6.70;99.90;;;;;;5137247;27;20118;-65
2022/11/14 04:12:52;;;;;;;34.85;14.45;;;6.70;99.90;;;;;;5137090;27;20078;-65
2022/11/14 04:15:19;;;;;;;26.45;11.90;;;6.70;99.90;;;;;;5136888;27;20053;-66
2022/11/14 04:17:45;;;;;;;26.65;12.98;;;6.70;99.90;;;;;;5136788;27;20042;-65
2022/11/14 04:20:13;;;;;;;24.63;12.43;;;6.70;99.90;;;;;;5118633;27;20031;-65
2022/11/14 04:22:39;;;;;;;23.15;12.18;;;7.20;99.90;;;;;;5136979;27;20412;-65
2022/11/14 04:25:06;;;;;;;30.55;12.75;;;6.80;99.90;;;;;;5118305;27;20399;-66
2022/11/14 04:27:31;;;;;;;28.10;12.02;;;6.70;99.90;;;;;;5136909;27;20035;-66
2022/11/14 04:29:57;;;;;;;22.67;11.57;;;6.90;99.90;;;;;;5136884;27;20061;-66
2022/11/14 04:32:23;;;;;;;28.00;11.93;;;6.50;99.90;;;;;;5136571;27;20035;-66
2022/11/14 04:34:48;;;;;;;22.75;11.43;;;7.10;99.90;;;;;;5136642;27;20123;-65
2022/11/14 04:37:14;;;;;;;26.33;12.50;;;7.00;99.90;;;;;;5136451;27;20053;-65
2022/11/14 04:39:40;;;;;;;23.42;12.73;;;6.70;99.90;;;;;;5136570;27;20039;-66
2022/11/14 04:42:05;;;;;;;25.85;12.20;;;6.60;99.90;;;;;;5136589;27;20407;-66
2022/11/14 04:44:31;;;;;;;30.75;12.43;;;6.90;99.90;;;;;;5117905;27;20469;-65
2022/11/14 04:46:57;;;;;;;26.55;12.23;;;6.60;99.90;;;;;;5117817;27;20104;-66
2022/11/14 04:49:22;;;;;;;27.92;13.95;;;6.60;99.90;;;;;;5136157;27;20123;-66
2022/11/14 04:51:48;;;;;;;29.13;13.50;;;6.60;99.90;;;;;;5136376;27;20085;-66
2022/11/14 04:54:14;;;;;;;24.83;12.65;;;6.60;99.90;;;;;;5136356;27;20039;-66
2022/11/14 04:56:39;;;;;;;24.17;12.70;;;6.60;99.90;;;;;;5136346;27;20050;-66
2022/11/14 04:59:05;;;;;;;27.30;12.73;;;6.60;99.90;;;;;;5117325;27;20047;-66
2022/11/14 05:01:31;;;;;;;23.60;11.73;;;6.60;99.90;;;;;;5136133;27;20505;-65
2022/11/14 05:03:57;;;;;;;20.90;11.50;;;6.60;99.90;;;;;;5117830;27;20099;-66
2022/11/14 05:06:22;;;;;;;29.75;13.27;;;6.60;99.90;;;;;;5136115;27;20034;-66
2022/11/14 05:08:48;;;;;;;22.05;12.15;;;7.00;99.90;;;;;;5136023;27;20399;-67
2022/11/14 05:11:15;;;;;;;27.67;12.57;;;7.10;99.90;;;;;;5136071;27;20122;-66
2022/11/14 05:13:41;;;;;;;26.58;12.57;;;6.50;99.90;;;;;;5136006;27;20239;-65
2022/11/14 05:16:07;;;;;;;27.88;12.43;;;6.60;99.90;;;;;;5135871;27;20043;-66
2022/11/14 05:18:32;;;;;;;30.23;14.60;;;6.50;99.90;;;;;;5117100;27;20050;-67
2022/11/14 05:20:59;;;;;;;27.92;12.07;;;6.50;99.90;;;;;;5135882;27;20170;-66
2022/11/14 05:23:26;;;;;;;25.08;12.75;;;6.60;99.90;;;;;;5135783;27;20118;-66
2022/11/14 05:26:17;;;;;;;24.35;12.43;;;6.60;99.90;;;;;;5135769;27;20043;-66
2022/11/14 05:28:43;;;;;;;23.90;12.85;;;6.90;99.90;;;;;;5131529;27;20070;-66
2022/11/14 05:31:18;;;;;;;22.83;13.00;;;6.50;99.90;;;;;;5135603;27;20066;-66
2022/11/14 05:33:45;;;;;;;27.27;12.75;;;7.10;99.90;;;;;;5135350;27;20038;-66
2022/11/14 05:36:13;;;;;;;27.35;12.60;;;7.10;99.90;;;;;;5135517;27;20041;-66
2022/11/14 05:38:39;;;;;;;30.13;14.15;;;6.60;99.90;;;;;;5135396;27;20031;-65
2022/11/14 05:41:07;;;;;;;29.52;14.18;;;6.60;99.90;;;;;;5135427;27;20043;-65
2022/11/14 05:43:33;;;;;;;29.92;13.18;;;6.50;99.90;;;;;;5135282;27;20038;-65
2022/11/14 05:46:03;;;;;;;24.77;11.38;;;6.50;99.90;;;;;;5134799;27;20057;-65
2022/11/14 05:48:29;;;;;;;26.08;13.75;;;6.60;99.90;;;;;;5135300;27;20080;-65
2022/11/14 05:51:00;;;;;;;34.10;14.13;;;6.30;99.90;;;;;;5135202;27;20444;-65
2022/11/14 05:53:27;;;;;;;27.73;13.70;;;7.00;99.90;;;;;;5135224;27;20035;-66
2022/11/14 05:55:54;;;;;;;30.40;13.55;;;6.40;99.90;;;;;;5135159;27;20031;-65
2022/11/14 05:58:20;;;;;;;29.50;13.80;;;6.60;99.90;;;;;;5134583;27;20155;-69
2022/11/14 06:00:47;;;;;;;29.65;13.77;;;6.40;99.90;;;;;;5134985;27;20126;-66
2022/11/14 06:03:13;;;;;;;35.38;13.90;;;6.40;99.90;;;;;;5135054;27;20386;-65
2022/11/14 06:05:40;;;;;;;30.63;12.73;;;6.40;99.90;;;;;;5134658;27;20031;-66
2022/11/14 06:08:06;;;;;;;26.75;13.60;;;6.40;99.90;;;;;;5134939;27;20031;-65
2022/11/14 06:10:34;;;;;;;31.90;12.52;;;6.10;99.90;;;;;;5134603;27;20047;-65
2022/11/14 06:13:00;;;;;;;29.13;12.00;;;6.30;99.90;;;;;;5134950;27;20039;-65
2022/11/14 06:15:26;;;;;;;26.80;13.88;;;6.40;99.90;;;;;;5134824;27;20496;-66
2022/11/14 06:17:56;;;;;;;28.75;12.88;;;6.40;99.90;;;;;;5134880;27;20122;-65
2022/11/14 06:20:22;;;;;;;32.70;12.98;;;6.40;99.90;;;;;;5134463;27;20086;-65
2022/11/14 06:22:48;;;;;;;30.92;13.25;;;6.40;99.90;;;;;;5134692;27;20067;-65
2022/11/14 06:25:14;;;;;;;31.58;12.80;;;6.40;99.90;;;;;;5134446;27;20450;-65
2022/11/14 06:27:39;;;;;;;28.33;13.00;;;6.40;99.90;;;;;;5134355;27;20038;-65
2022/11/14 06:30:05;;;;;;;26.55;12.95;;;6.30;99.90;;;;;;5134635;27;20121;-65
2022/11/14 06:32:31;;;;;;;33.80;13.10;;;6.30;99.90;;;;;;5134539;27;20035;-65
2022/11/14 06:34:57;;;;;;;26.75;13.48;;;6.30;99.90;;;;;;5134539;27;20501;-65
2022/11/14 06:37:22;;;;;;;29.90;12.90;;;6.30;99.90;;;;;;5134337;27;20039;-67
2022/11/14 06:39:48;;;;;;;28.52;12.52;;;6.40;99.90;;;;;;5115734;28;20047;-66
2022/11/14 06:42:15;;;;;;;31.75;13.65;;;6.30;99.90;;;;;;5134500;27;20039;-66
2022/11/14 06:44:41;;;;;;;31.20;13.32;;;6.50;99.90;;;;;;5134539;28;20050;-65
2022/11/14 06:47:06;;;;;;;32.78;13.63;;;6.30;99.90;;;;;;5134370;28;20394;-64
2022/11/14 06:49:32;;;;;;;35.42;13.25;;;6.20;99.90;;;;;;5134490;28;20039;-64
2022/11/14 06:51:58;;;;;;;31.77;13.10;;;6.30;99.90;;;;;;5134454;28;20039;-65
2022/11/14 06:54:23;;;;;;;28.48;11.82;;;6.20;99.90;;;;;;5115799;28;20035;-65
2022/11/14 06:56:49;;;;;;;32.15;13.75;;;6.10;99.90;;;;;;5135776;27;20067;-67
2022/11/14 06:59:14;;;;;;;30.13;14.30;;;6.10;99.90;;;;;;5138337;27;20059;-65
2022/11/14 07:01:40;;;;;;;35.70;14.02;;;6.20;99.90;;;;;;5138657;27;20035;-65
2022/11/14 07:04:06;;;;;;;30.23;12.73;;;6.10;99.90;;;;;;5138437;27;20078;-64
2022/11/14 07:06:32;;;;;;;29.80;13.15;;;6.10;99.90;;;;;;5138177;27;20087;-65
2022/11/14 07:08:58;;;;;;;28.60;12.95;;;6.10;99.90;;;;;;5138412;27;20084;-65
2022/11/14 07:11:28;;;;;;;31.95;13.02;;;6.10;99.90;;;;;;5138370;27;20107;-68
2022/11/14 07:14:01;;;;;;;31.58;13.00;;;6.10;99.90;;;;;;5138329;27;20039;-64
2022/11/14 07:16:34;;;;;;;32.63;13.63;;;6.00;99.90;;;;;;5137859;27;20043;-67
2022/11/14 07:19:01;;;;;;;25.67;12.75;;;6.70;99.90;;;;;;5138082;27;20035;-65
2022/11/14 07:21:29;;;;;;;31.67;13.15;;;6.00;99.90;;;;;;5138065;27;20478;-65
2022/11/14 07:23:56;;;;;;;26.10;12.75;;;6.00;99.90;;;;;;5138033;27;20034;-65
2022/11/14 07:26:21;;;;;;;26.67;12.48;;;6.00;99.90;;;;;;5136695;27;20035;-64
2022/11/14 07:28:47;;;;;;;26.85;13.05;;;6.50;99.90;;;;;;5137548;27;20035;-64
2022/11/14 07:31:16;;;;;;;30.95;13.45;;;5.90;99.90;;;;;;5137831;27;20032;-65
2022/11/14 07:33:42;;;;;;;31.35;13.30;;;6.00;99.90;;;;;;5119110;27;20053;-64
2022/11/14 07:36:09;;;;;;;28.58;12.85;;;6.60;99.90;;;;;;5137714;27;20154;-64
2022/11/14 07:38:36;;;;;;;26.38;11.93;;;6.10;99.90;;;;;;5137408;27;20035;-63
2022/11/14 07:41:05;;;;;;;27.42;12.50;;;6.10;99.90;;;;;;5136773;27;20035;-64
2022/11/14 07:43:31;;;;;;;29.38;13.20;;;6.10;99.90;;;;;;5136717;27;20035;-66
2022/11/14 07:46:10;;;;;;;30.17;13.50;;;6.10;99.90;;;;;;5136686;27;20035;-65
2022/11/14 07:48:36;;;;;;;21.55;11.50;;;6.10;99.90;;;;;;5136307;27;20046;-65
2022/11/14 07:51:04;;;;;;;22.17;11.27;;;6.10;99.90;;;;;;5136352;27;20032;-64
2022/11/14 07:53:30;;;;;;;24.33;12.77;;;6.10;99.90;;;;;;5136538;27;20046;-65
2022/11/14 07:56:00;;;;;;;26.73;12.32;;;6.10;99.90;;;;;;5136281;27;20114;-65
2022/11/14 07:58:26;;;;;;;32.92;13.38;;;6.10;99.90;;;;;;5117647;27;20124;-66
2022/11/14 08:00:51;;;;;;;31.10;13.45;;;6.10;99.90;;;;;;5136434;27;20047;-66
2022/11/14 08:03:17;;;;;;;27.55;11.88;;;6.10;99.90;;;;;;5136069;27;20470;-66
2022/11/14 08:05:43;;;;;;;31.05;12.93;;;6.20;99.90;;;;;;5136319;27;20031;-66
2022/11/14 08:08:08;;;;;;;27.25;12.55;;;6.20;99.90;;;;;;5135726;27;20035;-67
2022/11/14 08:10:34;;;;;;;32.35;14.05;;;6.30;99.90;;;;;;5136184;27;20062;-66
2022/11/14 08:13:02;;;;;;;32.35;14.00;;;6.30;99.90;;;;;;5136291;27;20414;-65
2022/11/14 08:15:29;;;;;;;24.95;12.82;;;6.30;99.90;;;;;;5136152;27;20050;-66
2022/11/14 08:17:58;;;;;;;33.45;12.50;;;6.70;99.90;;;;;;5136296;27;20047;-65
2022/11/14 08:20:25;;;;;;;23.75;11.57;;;6.30;99.90;;;;;;5135767;27;20043;-66
2022/11/14 08:22:51;;;;;;;23.88;10.63;;;6.30;99.90;;;;;;5136027;27;20042;-65
2022/11/14 08:25:17;;;;;;;26.83;12.43;;;6.40;99.90;;;;;;5136025;27;20039;-65
2022/11/14 08:27:42;;;;;;;22.05;11.48;;;6.50;99.90;;;;;;5117271;27;20114;-65
2022/11/14 08:30:08;;;;;;;26.38;11.73;;;6.40;99.90;;;;;;5117613;27;20035;-65
2022/11/14 08:32:34;;;;;;;31.55;12.98;;;6.40;99.90;;;;;;5135873;27;20077;-66
2022/11/14 08:35:00;;;;;;;24.60;11.73;;;6.40;99.90;;;;;;5135851;27;20114;-66
2022/11/14 08:37:25;;;;;;;29.90;12.38;;;6.40;99.90;;;;;;5135740;27;20109;-66
2022/11/14 08:39:51;;;;;;;27.17;12.63;;;6.50;99.90;;;;;;5135290;27;20436;-68
2022/11/14 08:42:17;;;;;;;24.95;11.82;;;6.50;99.90;;;;;;5135700;27;20031;-65
2022/11/14 08:44:42;;;;;;;24.02;12.40;;;6.50;99.90;;;;;;5135591;27;20058;-65
2022/11/14 08:47:08;;;;;;;25.48;11.50;;;6.50;99.90;;;;;;5135337;27;20035;-66
2022/11/14 08:49:34;;;;;;;26.45;12.80;;;6.70;99.90;;;;;;5135330;27;20519;-66
2022/11/14 08:51:59;;;;;;;30.23;12.82;;;6.50;99.90;;;;;;5135444;27;20390;-66
2022/11/14 08:54:25;;;;;;;22.63;12.00;;;6.60;99.90;;;;;;5135431;27;20043;-66
2022/11/14 08:56:51;;;;;;;29.30;12.52;;;6.60;99.90;;;;;;5116996;27;20046;-66
2022/11/14 08:59:17;;;;;;;27.75;12.50;;;6.50;99.90;;;;;;5133750;27;20051;-66
2022/11/14 09:01:42;;;;;;;28.10;12.07;;;6.50;99.90;;;;;;5135305;27;20386;-66
2022/11/14 09:04:08;;;;;;;28.60;12.40;;;6.70;99.90;;;;;;5135209;27;20038;-66
2022/11/14 09:06:34;;;;;;;23.58;11.57;;;6.50;99.90;;;;;;5116386;27;20066;-66
2022/11/14 09:08:59;;;;;;;22.77;11.23;;;6.50;99.90;;;;;;5135132;27;20058;-66
2022/11/14 09:11:25;;;;;;;23.85;11.57;;;6.50;99.90;;;;;;5134764;27;20401;-67
2022/11/14 09:13:51;;;;;;;26.52;11.55;;;6.50;99.90;;;;;;5135075;27;20051;-66
2022/11/14 09:16:16;;;;;;;26.90;11.85;;;6.60;99.90;;;;;;5134962;27;20122;-68
2022/11/14 09:18:42;;;;;;;30.63;12.15;;;6.60;99.90;;;;;;5134653;27;20035;-66
2022/11/14 09:21:09;;;;;;;24.63;11.95;;;6.70;99.90;;;;;;5115826;27;20122;-66
2022/11/14 09:23:35;;;;;;;25.92;11.90;;;6.70;99.90;;;;;;5134830;27;20513;-66
2022/11/14 09:26:05;;;;;;;30.85;12.57;;;6.80;99.90;;;;;;5134807;27;20031;-66
2022/11/14 09:28:31;;;;;;;24.95;11.77;;;6.80;99.90;;;;;;5134692;27;20039;-67
2022/11/14 09:31:06;;;;;;;24.13;11.18;;;6.80;99.90;;;;;;5116127;27;20147;-67
2022/11/14 09:33:32;;;;;;;24.95;12.50;;;6.90;99.90;;;;;;5134715;27;20114;-66
2022/11/14 09:36:04;;;;;;;34.90;12.73;;;7.00;99.90;;;;;;5134535;27;20039;-65
2022/11/14 09:38:30;;;;;;;;;;;7.00;99.90;;;;;;5135051;27;20043;-66
2022/11/14 09:41:07;;;;;;;25.27;11.13;;;7.10;99.90;;;;;;5134444;27;19926;-66
2022/11/14 09:43:45;;;;;;;26.58;12.13;;;7.10;99.90;;;;;;5134485;27;20035;-66
2022/11/14 09:46:16;;;;;;;28.35;12.85;;;;;;;;;;5134409;27;20038;-66
2022/11/14 09:48:42;;;;;;;;;;;7.10;99.90;;;;;;5134524;27;20035;-66
2022/11/14 09:51:20;;;;;;;28.05;12.05;;;7.20;99.90;;;;;;5134338;27;19922;-66
2022/11/14 09:54:18;;;;;;;20.88;11.75;;;7.20;99.90;;;;;;5134285;27;20070;-66
2022/11/14 09:56:44;;;;;;;25.38;11.10;;;7.60;99.90;;;;;;5133189;27;20094;-66
2022/11/14 09:59:11;;;;;;;27.60;12.10;;;7.30;99.90;;;;;;5133932;27;20647;-65
2022/11/14 10:01:51;;;;;;;25.23;12.25;;;7.30;99.90;;;;;;5134034;27;20122;-67
2022/11/14 10:04:48;;;;;;;26.13;11.93;;;7.40;99.90;;;;;;5115439;27;20088;-66
2022/11/14 10:07:35;;;;;;;24.35;11.45;;;;;;;;;;5134104;27;20036;-66
2022/11/14 10:10:20;;;;;;;23.20;10.90;;;;;;;;;;5134058;27;20490;-65
2022/11/14 10:13:10;;;;;;;24.58;12.23;;;7.20;99.90;;;;;;5133916;27;20042;-66
2022/11/14 10:15:45;;;;;;;23.42;11.68;;;7.40;99.90;;;;;;5115248;27;20049;-66
2022/11/14 10:18:22;;;;;;;22.73;11.00;;;8.00;99.90;;;;;;5133933;27;20122;-66
2022/11/14 10:21:01;;;;;;;23.10;11.35;;;7.40;99.90;;;;;;5133730;27;20048;-66
2022/11/14 10:23:40;;;;;;;27.70;12.90;;;7.30;99.90;;;;;;5133467;27;20047;-66
2022/11/14 10:26:22;;;;;;;30.80;12.80;;;7.40;99.90;;;;;;5133798;27;20039;-66
2022/11/14 10:29:25;;;;;;;27.63;12.25;;;7.40;99.90;;;;;;5133513;27;20042;-66
2022/11/14 10:32:20;;;;;;;21.58;11.73;;;7.40;99.90;;;;;;5133542;27;20078;-67
2022/11/14 10:34:57;;;;;;;28.35;12.48;;;7.50;99.90;;;;;;5133668;27;20027;-66
2022/11/14 10:37:32;;;;;;;26.38;12.57;;;7.80;99.90;;;;;;5115251;27;20057;-66
2022/11/14 10:40:22;;;;;;;22.90;11.90;;;7.60;99.90;;;;;;5133487;27;20100;-66
2022/11/14 10:42:49;;;;;;;22.75;11.77;;;;;;;;;;5095718;27;20043;-66
2022/11/14 10:45:31;;;;;;;26.20;11.75;;;;;;;;;;5133284;27;20039;-66
2022/11/14 10:48:00;;;;;;;21.70;11.18;;;;;;;;;;5133248;28;20031;-65
2022/11/14 10:50:28;;;;;;;24.50;12.60;;;;;;;;;;5133519;28;20032;-66
2022/11/14 10:52:59;;;;;;;23.58;11.10;;;;;;;;;;5115056;28;20086;-65
2022/11/14 10:55:25;;;;;;;22.95;11.40;;;;;;;;;;5133516;28;20051;-66
2022/11/14 10:57:52;;;;;;;25.05;12.25;;;;;;;;;;5133324;28;20046;-66
2022/11/14 11:00:19;;;;;;;22.13;11.77;;;;;;;;;;5132862;28;20062;-65
2022/11/14 11:02:50;;;;;;;19.95;10.90;;;;;;;;;;5133045;28;20047;-66
2022/11/14 11:05:17;;;;;;;22.92;11.38;;;;;;;;;;5133140;28;20039;-66
2022/11/14 11:13:29;;;;;;;22.05;11.88;;;;;;;;;;5114407;28;20115;-66
2022/11/14 11:15:57;;;;;;;25.67;12.20;;;;;;;;;;5114588;28;20051;-66
2022/11/14 11:18:26;;;;;;;21.88;11.80;;;;;;;;;;5133247;28;20390;-65
2022/11/14 11:21:14;;;;;;;24.83;11.75;;;8.00;99.90;;;;;;5114403;28;20047;-65
2022/11/14 11:23:55;;;;;;;25.58;12.32;;;8.30;99.90;;;;;;5133124;28;20122;-66
2022/11/14 11:26:32;;;;;;;22.30;10.15;;;8.50;99.90;;;;;;5133244;28;20096;-66
2022/11/14 11:29:05;;;;;;;21.30;10.48;;;8.60;99.90;;;;;;5132859;28;20050;-65
2022/11/14 11:31:50;;;;;;;21.73;11.18;;;8.70;99.90;;;;;;5133158;28;20480;-65
2022/11/14 11:34:24;;;;;;;19.00;9.98;;;8.90;99.90;;;;;;5097766;28;20047;-66
2022/11/14 11:37:01;;;;;;;23.98;11.75;;;8.90;99.90;;;;;;5133128;28;20035;-66
2022/11/14 11:39:32;;;;;;;19.85;10.25;;;8.90;99.90;;;;;;5132739;28;20130;-66
2022/11/14 11:42:05;;;;;;;25.77;11.77;;;9.00;99.90;;;;;;5133063;27;20113;-65
2022/11/14 11:44:36;;;;;;;29.80;12.13;;;9.20;99.90;;;;;;5136897;27;20034;-64
2022/11/14 11:47:07;;;;;;;24.83;11.70;;;9.50;99.90;;;;;;5118131;27;20054;-66
2022/11/14 11:49:43;;;;;;;22.38;10.52;;;10.00;99.90;;;;;;5118217;27;20043;-65
2022/11/14 11:52:17;;;;;;;22.48;11.02;;;10.40;99.40;;;;;;5118455;27;20049;-65
2022/11/14 11:54:59;;;;;;;21.17;11.13;;;10.40;99.90;;;;;;5118252;27;20100;-65
2022/11/14 11:57:37;;;;;;;19.60;10.32;;;10.50;99.00;;;;;;5118180;27;20073;-65
2022/11/14 12:00:07;;;;;;;21.48;10.20;;;10.60;97.80;;;;;;5136131;27;20490;-65
2022/11/14 12:02:38;;;;;;;23.88;11.35;;;10.50;99.90;;;;;;5135215;27;20494;-65
2022/11/14 12:05:04;;;;;;;23.83;11.45;;;10.50;98.40;;;;;;5136413;27;20122;-65
2022/11/14 12:07:55;;;;;;;19.95;11.15;;;10.40;96.70;;;;;;5136306;27;20122;-65
2022/11/14 12:10:24;;;;;;;21.85;10.30;;;10.50;99.90;;;;;;5136216;27;20051;-65
2022/11/14 12:13:08;;;;;;;19.65;9.45;;;10.30;97.60;;;;;;5135867;27;20186;-66
2022/11/14 12:16:04;;;;;;;21.98;11.55;;;10.60;99.90;;;;;;5117633;27;20394;-65
2022/11/14 12:18:42;;;;;;;23.63;11.45;;;10.20;99.90;;;;;;5136042;27;20039;-65
2022/11/14 12:21:27;;;;;;;19.95;9.52;;;10.00;99.90;;;;;;5135994;27;20075;-65
2022/11/14 12:24:26;;;;;;;23.60;11.90;;;9.80;99.90;;;;;;5135719;27;20091;-66
2022/11/14 12:27:17;;;;;;;20.42;10.43;;;9.70;99.90;;;;;;5135634;27;20035;-65
2022/11/14 12:29:50;;;;;;;;;;;9.40;99.90;;;;;;5117546;27;20085;-65
2022/11/14 12:32:27;;;;;;;26.63;11.10;;;9.30;99.90;;;;;;5117055;27;19922;-65
2022/11/14 12:34:53;;;;;;;17.60;10.20;;;9.20;99.90;;;;;;5135773;27;20072;-65
2022/11/14 12:37:33;;;;;;;21.63;10.20;;;9.00;99.90;;;;;;5117461;27;20039;-65
2022/11/14 12:40:06;;;;;;;17.83;10.57;;;9.00;99.90;;;;;;5135750;27;20501;-65
2022/11/14 12:42:32;;;;;;;18.42;10.70;;;8.90;99.90;;;;;;5116961;27;20050;-65
2022/11/14 12:44:58;;;;;;;20.02;10.20;;;8.90;99.90;;;;;;5117070;27;20126;-65
2022/11/14 12:47:28;;;;;;;17.70;9.65;;;8.90;99.90;;;;;;5135390;27;20200;-65
2022/11/14 12:49:53;;;;;;;21.38;11.05;;;8.90;99.90;;;;;;5116829;27;20122;-70
2022/11/14 12:52:47;;;;;;;20.38;10.27;;;8.80;99.90;;;;;;5116881;27;20604;-65
2022/11/14 12:55:25;;;;;;;17.52;9.63;;;8.80;99.90;;;;;;5135120;27;20038;-65
2022/11/14 12:58:28;;;;;;;18.13;10.13;;;8.80;99.90;;;;;;5135153;27;20035;-66